createdAt,value
2019-04-25T00:01:14.353Z,1.1
2019-04-25T00:04:37.006Z,1.1
2019-04-25T00:07:58.885Z,0.8
2019-04-25T00:11:22.037Z,1
2019-04-25T00:14:44.482Z,1
2019-04-25T00:18:06.334Z,0.8
2019-04-25T00:21:28.153Z,0.9
2019-04-25T00:24:53.129Z,1.1
2019-04-25T00:28:15.302Z,1
2019-04-25T00:31:38.957Z,1.1
2019-04-25T00:35:02.134Z,1
2019-04-25T00:38:25.064Z,1
2019-04-25T00:41:47.372Z,1.1
2019-04-25T00:45:09.211Z,0.8
2019-04-25T00:48:32.408Z,1.1
2019-04-25T00:51:55.125Z,1.2
2019-04-25T00:55:26.200Z,1.1
2019-04-25T00:58:54.054Z,1.2
2019-04-25T01:02:15.924Z,0.9
2019-04-25T01:05:44.378Z,0.9
2019-04-25T01:09:06.487Z,1.1
2019-04-25T01:12:28.329Z,1
2019-04-25T01:15:52.914Z,1
2019-04-25T01:19:15.700Z,1.1
2019-04-25T01:22:37.524Z,1.3
2019-04-25T01:26:03.310Z,1.2
2019-04-25T01:29:33.831Z,1.3
2019-04-25T01:32:57.510Z,1
2019-04-25T01:36:20.977Z,1.1
2019-04-25T01:39:44.227Z,1.2
2019-04-25T03:50:06.757Z,1.3
2019-04-25T03:53:29.072Z,1.4
2019-04-25T03:56:54.327Z,1.3
2019-04-25T04:00:17.953Z,1.2
2019-04-25T04:03:39.861Z,1.2
2019-04-25T04:07:08.413Z,1.2
2019-04-25T04:10:33.240Z,1.3
2019-04-25T04:12:38.103Z,1.2
2019-04-25T04:15:59.924Z,1.3
2019-04-25T04:19:21.786Z,1.3
2019-04-25T04:22:43.908Z,1.2
2019-04-25T04:26:06.231Z,1.4
2019-04-25T04:29:28.096Z,1.1
2019-04-25T04:32:50.578Z,1.2
2019-04-25T04:36:17.215Z,1.4
2019-04-25T04:39:39.938Z,1.2
2019-04-25T04:43:02.089Z,1.7
2019-04-25T04:46:24.178Z,1.7
2019-04-25T04:49:46.002Z,1.7
2019-04-25T04:53:10.929Z,1.8
2019-04-25T04:56:36.251Z,2.1
2019-04-25T04:59:58.010Z,2
2019-04-25T05:03:19.915Z,2
2019-04-25T05:06:43.755Z,2
2019-04-25T05:10:05.713Z,1.8
2019-04-25T05:13:27.605Z,3.5
2019-04-25T05:16:49.604Z,2.7
2019-04-25T05:20:18.543Z,5.2
2019-04-25T05:23:41.428Z,5.6
2019-04-25T05:27:03.892Z,4.2
2019-04-25T05:30:26.588Z,3.1
2019-04-25T05:33:48.793Z,3.1
2019-04-25T05:37:10.592Z,3
2019-04-25T05:40:33.624Z,2.8
2019-04-25T05:43:55.795Z,3
2019-04-25T05:47:21.340Z,2.4
2019-04-25T05:50:45.684Z,2.2
2019-04-25T05:54:08.589Z,1.8
2019-04-25T05:57:44.886Z,1.8
2019-04-25T06:01:08.256Z,2.3
2019-04-25T06:04:30.348Z,1.8
2019-04-25T06:07:54.317Z,2.8
2019-04-25T06:11:18.061Z,2.2
2019-04-25T06:14:43.289Z,1.8
2019-04-25T06:18:05.849Z,2.1
2019-04-25T06:21:27.788Z,2
2019-04-25T06:24:49.707Z,1.8
2019-04-25T06:28:26.246Z,1.7
2019-04-25T06:32:06.547Z,2
2019-04-25T06:35:30.242Z,1.6
2019-04-25T06:38:54.478Z,1.8
2019-04-25T06:42:17.316Z,2.3
2019-04-25T06:45:39.371Z,1.8
2019-04-25T06:49:01.362Z,1.9
2019-04-25T06:52:30.654Z,1.4
2019-04-25T06:55:54.843Z,1.4
2019-04-25T06:59:18.486Z,1.2
2019-04-25T07:02:49.613Z,0.9
2019-04-25T07:06:12.946Z,1.2
2019-04-25T07:09:37.214Z,1.2
2019-04-25T07:12:59.071Z,1.3
2019-04-25T07:16:24.050Z,1.4
2019-04-25T07:19:04.587Z,1
2019-04-25T07:22:27.347Z,1
2019-04-25T07:25:49.211Z,1.2
2019-04-25T07:29:16.258Z,0.8
2019-04-25T07:32:47.003Z,0.9
2019-04-25T07:36:10.856Z,1.1
2019-04-25T07:39:37.088Z,0.6
2019-04-25T07:42:58.972Z,0.8
2019-04-25T07:46:39.260Z,0.6
2019-04-25T07:50:01.852Z,0.5
2019-04-25T07:53:24.015Z,0.5
2019-04-25T07:56:49.211Z,0.9
2019-04-25T08:00:11.296Z,0.7
2019-04-25T08:03:37.139Z,0.9
2019-04-25T08:06:58.976Z,0.5
2019-04-25T08:10:21.612Z,0.6
2019-04-25T08:13:44.044Z,0.7
2019-04-25T08:17:05.925Z,0.7
2019-04-25T08:20:29.277Z,0.8
2019-04-25T08:23:51.216Z,0.7
2019-04-25T08:27:13.803Z,0.8
2019-04-25T08:41:10.000Z,0.7
2019-04-25T08:44:31.000Z,1
2019-04-25T08:47:56.000Z,0.6
2019-04-25T08:51:19.000Z,0.7
2019-04-25T08:54:41.000Z,0.7
2019-04-25T08:58:05.000Z,0.8
2019-04-25T09:01:38.000Z,0.7
2019-04-25T09:05:01.000Z,0.8
2019-04-25T09:08:23.000Z,1
2019-04-25T09:11:47.000Z,0.7
2019-04-25T09:15:10.000Z,0.8
2019-04-25T09:18:33.000Z,0.8
2019-04-25T09:21:57.000Z,0.7
2019-04-25T09:25:20.000Z,0.6
2019-04-25T09:28:42.000Z,1.5
2019-04-25T09:32:04.000Z,0.8
2019-04-25T09:35:29.000Z,0.6
2019-04-25T09:38:52.000Z,0.7
2019-04-25T09:42:13.000Z,0.7
2019-04-25T09:45:35.000Z,0.9
2019-04-25T09:49:02.000Z,0.8
2019-04-25T09:52:24.000Z,0.7
2019-04-25T09:55:48.000Z,0.7
2019-04-25T09:59:10.000Z,0.7
2019-04-25T10:02:48.000Z,0.8
2019-04-25T10:06:11.000Z,0.6
2019-04-25T10:09:33.000Z,0.8
2019-04-25T10:12:55.000Z,0.5
2019-04-25T10:16:22.000Z,0.6
2019-04-25T10:19:43.000Z,0.6
2019-04-25T10:23:05.000Z,0.8
2019-04-25T10:26:27.000Z,0.7
2019-04-25T10:29:51.000Z,0.7
2019-04-25T10:33:13.000Z,0.8
2019-04-25T10:36:39.000Z,0.5
2019-04-25T10:40:03.000Z,0.8
2019-04-25T10:43:29.000Z,0.6
2019-04-25T10:46:51.000Z,0.9
2019-04-25T10:50:13.000Z,0.5
2019-04-25T10:53:38.000Z,0.5
2019-04-25T10:57:03.000Z,0.6
2019-04-25T11:00:25.000Z,0.6
2019-04-25T11:03:49.000Z,0.8
2019-04-25T11:07:12.000Z,0.8
2019-04-25T11:10:34.000Z,0.5
2019-04-25T11:13:57.000Z,0.6
2019-04-25T11:17:19.000Z,0.5
2019-04-25T11:20:41.000Z,0.7
2019-04-25T11:24:03.000Z,0.7
2019-04-25T11:27:25.000Z,0.6
2019-04-25T11:30:48.000Z,0.8
2019-04-25T11:34:14.000Z,0.6
2019-04-25T11:37:36.000Z,0.7
2019-04-25T11:40:59.000Z,1.1
2019-04-25T11:44:20.000Z,0.6
2019-04-25T11:47:43.000Z,0.7
2019-04-25T11:51:08.000Z,0.6
2019-04-25T11:54:38.000Z,0.8
2019-04-25T11:58:02.000Z,0.7
2019-04-25T12:01:24.000Z,0.7
2019-04-25T12:04:46.000Z,0.8
2019-04-25T12:08:15.000Z,0.7
2019-04-25T12:11:40.000Z,0.6
2019-04-25T12:15:04.000Z,0.8
2019-04-25T12:18:26.000Z,0.7
2019-04-25T12:21:51.000Z,0.8
2019-04-25T12:25:15.000Z,0.9
2019-04-25T12:28:41.000Z,0.8
2019-04-25T12:32:03.000Z,0.8
2019-04-25T12:35:25.000Z,0.9
2019-04-25T12:38:49.000Z,0.8
2019-04-25T12:42:12.000Z,0.7
2019-04-25T12:45:34.000Z,0.8
2019-04-25T12:48:57.000Z,0.9
2019-04-25T12:52:19.000Z,0.6
2019-04-25T12:55:42.000Z,0.6
2019-04-25T12:59:04.000Z,0.7
2019-04-25T13:02:28.000Z,0.7
2019-04-25T13:05:52.000Z,0.8
2019-04-25T13:09:14.000Z,0.8
2019-04-25T13:12:38.000Z,0.8
2019-04-25T13:16:00.000Z,1.1
2019-04-25T13:19:22.000Z,1.1
2019-04-25T13:22:43.000Z,0.7
2019-04-25T13:26:05.000Z,0.7
2019-04-25T13:29:27.000Z,0.6
2019-04-25T13:33:01.000Z,0.6
2019-04-25T13:36:30.000Z,0.7
2019-04-25T13:39:53.000Z,0.9
2019-04-25T13:43:16.000Z,0.8
2019-04-25T13:46:38.000Z,1
2019-04-25T13:47:26.000Z,0.7
2019-04-25T13:49:11.000Z,0.8
2019-04-25T13:52:35.000Z,0.9
2019-04-25T13:55:58.000Z,0.7
2019-04-25T13:59:19.000Z,0.6
2019-04-25T14:02:42.000Z,0.6
2019-04-25T14:06:04.000Z,0.6
2019-04-25T14:09:26.000Z,0.5
2019-04-25T14:12:49.000Z,0.6
2019-04-25T14:16:16.000Z,0.5
2019-04-25T14:19:38.000Z,0.7
2019-04-25T14:22:59.000Z,0.6
2019-04-25T14:26:26.000Z,0.5
2019-04-25T14:29:50.000Z,0.6
2019-04-25T14:33:31.000Z,0.6
2019-04-25T14:36:53.000Z,0.5
2019-04-25T14:40:16.000Z,0.7
2019-04-25T14:43:38.000Z,0.4
2019-04-25T14:47:00.000Z,0.6
2019-04-25T14:50:22.000Z,0.4
2019-04-25T14:53:46.000Z,0.7
2019-04-25T14:57:09.000Z,0.6
2019-04-25T15:00:38.000Z,0.5
2019-04-25T15:04:00.000Z,0.7
2019-04-25T15:07:41.000Z,0.8
2019-04-25T15:09:50.000Z,0.7
2019-04-25T15:13:17.000Z,0.5
2019-04-25T15:16:40.000Z,0.6
2019-04-25T15:20:02.000Z,0.7
2019-04-25T15:23:25.000Z,0.6
2019-04-25T15:26:46.000Z,0.5
2019-04-25T15:30:08.000Z,0.6
2019-04-25T15:33:31.000Z,0.6
2019-04-25T15:36:54.000Z,0.3
2019-04-25T15:40:17.000Z,0.6
2019-04-25T15:43:39.000Z,0.5
2019-04-25T15:47:01.000Z,0.4
2019-04-25T15:50:23.000Z,0.5
2019-04-25T15:53:47.000Z,0.6
2019-04-25T15:57:09.000Z,0.7
2019-04-25T16:00:32.000Z,0.5
2019-04-25T16:04:02.000Z,0.8
2019-04-25T16:07:24.000Z,0.5
2019-04-25T16:10:49.000Z,0.8
2019-04-25T16:14:10.000Z,0.7
2019-04-25T16:17:34.000Z,1
2019-04-25T16:20:56.000Z,0.7
2019-04-25T16:24:17.000Z,0.6
2019-04-25T16:27:39.000Z,0.6
2019-04-25T16:31:01.000Z,0.6
2019-04-25T16:34:27.000Z,0.6
2019-04-25T16:37:49.000Z,0.5
2019-04-25T16:41:13.000Z,0.6
2019-04-25T16:44:35.000Z,0.5
2019-04-25T16:47:59.000Z,0.6
2019-04-25T16:51:22.000Z,0.7
2019-04-25T16:54:46.000Z,0.7
2019-04-25T16:58:08.000Z,0.5
2019-04-25T17:01:30.000Z,0.8
2019-04-25T17:04:52.000Z,0.7
2019-04-25T17:08:14.000Z,0.6
2019-04-25T17:11:36.000Z,0.5
2019-04-25T17:14:59.000Z,0.7
2019-04-25T17:18:22.000Z,0.5
2019-04-25T17:21:45.000Z,0.5
2019-04-25T17:25:07.000Z,0.7
2019-04-25T17:28:29.000Z,0.7
2019-04-25T17:31:51.000Z,0.5
2019-04-25T17:35:15.000Z,0.8
2019-04-25T17:38:37.000Z,0.8
2019-04-25T17:41:59.000Z,0.9
2019-04-25T17:45:22.000Z,0.8
2019-04-25T17:48:59.000Z,0.9
2019-04-25T17:52:21.000Z,0.8
2019-04-25T17:55:43.000Z,0.7
2019-04-25T17:59:07.000Z,0.8
2019-04-25T18:02:30.000Z,0.8
2019-04-25T18:05:52.000Z,0.8
2019-04-25T18:09:15.000Z,0.7
2019-04-25T18:12:37.000Z,0.8
2019-04-25T18:16:04.000Z,0.7
2019-04-25T18:19:31.000Z,1
2019-04-25T18:22:54.000Z,0.8
2019-04-25T18:26:18.000Z,0.8
2019-04-25T18:29:42.000Z,0.6
2019-04-25T18:33:04.000Z,1
2019-04-25T18:36:25.000Z,0.8
2019-04-25T18:39:47.000Z,0.9
2019-04-25T18:43:09.000Z,1
2019-04-25T18:46:33.000Z,1.4
2019-04-25T18:49:55.000Z,2.4
2019-04-25T18:53:16.000Z,1.9
2019-04-25T18:56:39.000Z,2.5
2019-04-25T19:00:02.000Z,3.4
2019-04-25T19:03:23.000Z,2.3
2019-04-25T19:06:47.000Z,2.1
2019-04-25T19:09:37.000Z,2.2
2019-04-25T19:12:59.000Z,1.7
2019-04-25T19:16:27.000Z,1.3
2019-04-25T19:19:49.000Z,1.1
2019-04-25T19:23:11.000Z,1
2019-04-25T19:26:40.000Z,1
2019-04-25T19:30:03.000Z,0.8
2019-04-25T19:33:26.000Z,0.9
2019-04-25T19:36:52.000Z,1.7
2019-04-25T19:40:14.000Z,1.1
2019-04-25T19:43:37.000Z,0.8
2019-04-25T19:47:00.000Z,1
2019-04-25T19:50:22.000Z,0.8
2019-04-25T19:53:45.000Z,0.8
2019-04-25T19:57:07.000Z,0.8
2019-04-25T20:00:29.000Z,0.7
2019-04-25T20:03:51.000Z,0.7
2019-04-25T20:07:13.000Z,0.8
2019-04-25T20:10:37.000Z,0.8
2019-04-25T20:13:59.000Z,0.9
2019-04-25T20:17:22.000Z,0.9
2019-04-25T20:20:44.000Z,1.2
2019-04-25T20:24:07.000Z,0.8
2019-04-25T20:27:29.000Z,1
2019-04-25T20:30:51.000Z,0.9
2019-04-25T20:34:13.000Z,1.1
2019-04-25T20:37:35.000Z,1
2019-04-25T20:40:57.000Z,1
2019-04-25T20:44:20.000Z,1.3
2019-04-25T20:47:42.000Z,1.2
2019-04-25T20:51:05.000Z,1.1
2019-04-25T20:54:27.000Z,1.2
2019-04-25T20:57:49.000Z,0.9
2019-04-25T21:01:12.000Z,1.3
2019-04-25T21:04:34.000Z,1.1
2019-04-25T21:07:56.000Z,1.3
2019-04-25T21:11:18.000Z,1.1
2019-04-25T21:14:40.000Z,0.8
2019-04-25T21:18:03.000Z,0.9
2019-04-25T21:21:26.000Z,1.3
2019-04-25T21:24:48.000Z,1
2019-04-25T21:28:10.000Z,1
2019-04-25T21:31:32.000Z,0.9
2019-04-25T21:34:55.000Z,0.7
2019-04-25T21:38:17.000Z,0.9
2019-04-25T21:41:41.000Z,1
2019-04-25T21:45:04.000Z,0.9
2019-04-25T21:48:26.000Z,1.1
2019-04-25T21:51:49.000Z,0.8
2019-04-25T21:55:11.000Z,0.8
2019-04-25T21:58:34.000Z,0.9
2019-04-25T22:02:01.000Z,0.8
2019-04-25T22:05:23.000Z,0.7
2019-04-25T22:08:46.000Z,0.7
2019-04-25T22:12:09.000Z,0.7
2019-04-25T22:15:33.000Z,0.8
2019-04-25T22:18:56.000Z,0.7
2019-04-25T22:22:19.000Z,1
2019-04-25T22:25:41.000Z,0.7
2019-04-25T22:29:04.000Z,0.7
2019-04-25T22:32:26.000Z,0.9
2019-04-25T22:35:49.000Z,0.6
2019-04-25T22:39:14.000Z,0.7
2019-04-25T22:42:37.000Z,0.9
2019-04-25T22:46:00.000Z,0.7
2019-04-25T22:49:22.000Z,0.7
2019-04-25T22:52:44.000Z,0.6
2019-04-25T22:56:06.000Z,0.7
2019-04-25T22:59:28.000Z,0.6
2019-04-25T23:02:50.000Z,0.7
2019-04-25T23:06:12.000Z,0.6
2019-04-25T23:09:35.000Z,0.5
2019-04-25T23:12:58.000Z,0.8
2019-04-25T23:16:21.000Z,0.6
2019-04-25T23:19:43.000Z,0.8
2019-04-25T23:23:05.000Z,0.5
2019-04-25T23:26:29.000Z,0.8
2019-04-25T23:29:52.000Z,0.5
2019-04-25T23:33:14.000Z,0.5
2019-04-25T23:36:36.000Z,0.6
2019-04-25T23:39:59.000Z,0.6
2019-04-25T23:43:22.000Z,0.7
2019-04-25T23:46:44.000Z,0.6
2019-04-25T23:50:06.000Z,0.6
2019-04-25T23:53:30.000Z,0.7
2019-04-25T23:56:53.000Z,0.8
